createdAt,value
2019-01-06T00:00:56.904Z,8.60
2019-01-06T00:01:56.898Z,9.00
2019-01-06T00:02:56.893Z,10.80
2019-01-06T00:03:56.891Z,9.90
2019-01-06T00:04:56.914Z,11.60
2019-01-06T00:05:56.885Z,11.90
2019-01-06T00:06:56.879Z,8.60
2019-01-06T00:07:56.875Z,7.60
2019-01-06T00:08:56.898Z,9.90
2019-01-06T00:09:56.867Z,9.20
2019-01-06T00:10:56.866Z,9.30
2019-01-06T00:11:56.861Z,12.90
2019-01-06T00:12:56.853Z,11.50
2019-01-06T00:13:56.881Z,8.90
2019-01-06T00:14:56.846Z,11.50
2019-01-06T00:15:56.841Z,9.60
2019-01-06T00:16:56.839Z,10.60
2019-01-06T00:17:56.829Z,10.60
2019-01-06T00:18:56.863Z,12.20
2019-01-06T00:19:56.827Z,12.70
2019-01-06T00:20:56.822Z,11.20
2019-01-06T00:21:56.818Z,10.40
2019-01-06T00:22:56.807Z,14.40
2019-01-06T00:23:56.836Z,13.30
2019-01-06T00:24:56.835Z,17.50
2019-01-06T00:25:56.800Z,16.70
2019-01-06T00:26:56.798Z,13.20
2019-01-06T00:27:56.793Z,16.10
2019-01-06T00:28:56.786Z,16.60
2019-01-06T00:29:56.814Z,18.00
2019-01-06T00:30:56.783Z,22.20
2019-01-06T00:31:56.777Z,25.50
2019-01-06T00:32:56.775Z,21.70
2019-01-06T00:33:56.798Z,21.80
2019-01-06T00:34:56.766Z,26.30
2019-01-06T00:35:56.761Z,23.60
2019-01-06T00:36:56.757Z,28.80
2019-01-06T00:37:56.749Z,28.10
2019-01-06T00:38:56.776Z,28.00
2019-01-06T00:39:56.742Z,29.90
2019-01-06T00:40:56.738Z,25.90
2019-01-06T00:41:56.733Z,25.80
2019-01-06T00:42:56.729Z,28.00
2019-01-06T00:43:56.753Z,27.50
2019-01-06T00:44:56.722Z,28.70
2019-01-06T00:45:56.718Z,32.90
2019-01-06T00:46:56.712Z,33.80
2019-01-06T00:47:56.708Z,35.60
2019-01-06T00:48:56.729Z,37.70
2019-01-06T00:49:56.700Z,35.30
2019-01-06T00:50:56.693Z,36.40
2019-01-06T00:51:56.688Z,34.50
2019-01-06T00:52:56.690Z,29.40
2019-01-06T00:53:56.677Z,31.90
2019-01-06T00:54:56.702Z,30.40
2019-01-06T00:55:56.672Z,34.10
2019-01-06T00:56:56.673Z,34.20
2019-01-06T00:57:56.661Z,29.80
2019-01-06T00:58:56.656Z,30.70
2019-01-06T00:59:56.682Z,28.70
2019-01-06T01:00:56.649Z,26.50
2019-01-06T01:01:56.645Z,34.50
2019-01-06T01:02:56.644Z,33.00
2019-01-06T01:03:56.643Z,33.50
2019-01-06T01:04:56.661Z,37.30
2019-01-06T01:05:56.623Z,31.80
2019-01-06T01:06:56.621Z,34.70
2019-01-06T01:07:56.713Z,31.10
2019-01-06T01:08:56.612Z,28.50
2019-01-06T01:09:56.640Z,30.50
2019-01-06T01:10:56.627Z,31.80
2019-01-06T01:11:56.596Z,28.40
2019-01-06T01:12:56.596Z,27.20
2019-01-06T01:13:56.592Z,30.30
2019-01-06T01:14:56.585Z,26.10
2019-01-06T01:15:56.607Z,25.50
2019-01-06T01:16:56.577Z,27.10
2019-01-06T01:17:56.572Z,26.80
2019-01-06T01:18:56.565Z,25.40
2019-01-06T01:19:56.563Z,26.10
2019-01-06T01:20:56.588Z,24.80
2019-01-06T01:21:56.552Z,29.80
2019-01-06T01:22:56.546Z,26.50
2019-01-06T01:23:56.544Z,27.10
2019-01-06T01:24:56.537Z,25.60
2019-01-06T01:25:56.560Z,28.30
2019-01-06T01:26:56.533Z,29.60
2019-01-06T01:27:56.525Z,27.10
2019-01-06T01:28:56.519Z,26.20
2019-01-06T01:29:56.506Z,28.20
2019-01-06T01:30:56.536Z,25.40
2019-01-06T01:31:56.504Z,28.50
2019-01-06T01:32:56.500Z,27.30
2019-01-06T01:33:56.495Z,28.00
2019-01-06T01:34:56.487Z,26.90
2019-01-06T01:35:56.512Z,25.60
2019-01-06T01:36:56.481Z,30.30
2019-01-06T01:37:56.476Z,28.90
2019-01-06T01:38:56.467Z,26.50
2019-01-06T01:39:56.478Z,27.70
2019-01-06T01:40:56.489Z,25.80
2019-01-06T01:41:56.455Z,25.40
2019-01-06T01:42:56.451Z,26.30
2019-01-06T01:43:56.447Z,23.00
2019-01-06T01:44:56.440Z,25.40
2019-01-06T01:45:56.464Z,24.10
2019-01-06T01:46:56.431Z,21.40
2019-01-06T01:47:56.429Z,22.30
2019-01-06T01:48:56.423Z,24.90
2019-01-06T01:49:56.418Z,25.50
2019-01-06T01:50:56.441Z,26.00
2019-01-06T01:51:56.407Z,25.50
2019-01-06T01:52:56.408Z,24.60
2019-01-06T01:53:56.394Z,20.60
2019-01-06T01:54:56.420Z,19.90
2019-01-06T01:55:56.389Z,21.50
2019-01-06T01:56:56.410Z,25.60
2019-01-06T01:57:56.375Z,19.20
2019-01-06T01:58:56.373Z,21.90
2019-01-06T01:59:56.367Z,22.70
2019-01-06T02:00:56.364Z,22.60
2019-01-06T02:01:56.388Z,19.90
2019-01-06T02:02:56.351Z,20.10
2019-01-06T02:03:56.347Z,20.50
2019-01-06T02:04:56.401Z,19.50
2019-01-06T02:05:56.341Z,21.70
2019-01-06T02:06:56.358Z,19.50
2019-01-06T02:07:56.328Z,21.10
2019-01-06T02:08:56.323Z,18.50
2019-01-06T02:09:56.320Z,19.00
2019-01-06T02:10:56.316Z,19.20
2019-01-06T02:11:56.339Z,21.50
2019-01-06T02:12:56.304Z,18.80
2019-01-06T02:13:56.300Z,19.30
2019-01-06T02:14:56.296Z,18.40
2019-01-06T02:15:56.381Z,19.00
2019-01-06T02:16:56.312Z,19.70
2019-01-06T02:17:56.280Z,18.20
2019-01-06T02:18:56.274Z,20.50
2019-01-06T02:19:56.267Z,19.20
2019-01-06T02:20:56.262Z,21.10
2019-01-06T02:21:56.292Z,17.20
2019-01-06T02:22:56.288Z,19.60
2019-01-06T02:23:56.254Z,19.20
2019-01-06T02:24:56.245Z,19.80
2019-01-06T02:25:56.239Z,17.60
2019-01-06T02:26:56.236Z,19.80
2019-01-06T02:27:56.254Z,16.50
2019-01-06T02:28:56.223Z,16.40
2019-01-06T02:29:56.219Z,20.30
2019-01-06T02:30:56.215Z,16.40
2019-01-06T02:31:56.211Z,18.30
2019-01-06T02:32:56.230Z,17.90
2019-01-06T02:33:56.202Z,16.70
2019-01-06T02:34:56.193Z,13.50
2019-01-06T02:35:56.192Z,14.40
2019-01-06T02:36:56.183Z,15.90
2019-01-06T02:37:56.221Z,15.30
2019-01-06T02:38:56.174Z,19.00
2019-01-06T02:39:56.169Z,15.30
2019-01-06T02:40:56.161Z,16.30
2019-01-06T02:41:56.161Z,12.30
2019-01-06T02:42:56.183Z,13.90
2019-01-06T02:43:56.175Z,12.80
2019-01-06T02:44:56.146Z,16.00
2019-01-06T02:45:56.138Z,15.90
2019-01-06T02:46:56.138Z,12.30
2019-01-06T02:47:56.126Z,13.00
2019-01-06T02:48:56.150Z,12.40
2019-01-06T02:49:56.118Z,11.80
2019-01-06T02:50:56.120Z,11.40
2019-01-06T02:51:56.113Z,11.50
2019-01-06T02:52:56.123Z,12.50
2019-01-06T02:53:56.099Z,11.50
2019-01-06T02:54:56.095Z,11.70
2019-01-06T02:55:56.086Z,9.20
2019-01-06T02:56:56.083Z,9.70
2019-01-06T02:57:56.105Z,10.60
2019-01-06T02:58:56.075Z,8.70
2019-01-06T02:59:56.071Z,9.60
2019-01-06T03:00:56.062Z,9.90
2019-01-06T03:01:56.057Z,9.40
2019-01-06T03:02:56.087Z,11.90
2019-01-06T03:03:56.046Z,9.70
2019-01-06T03:04:56.042Z,10.40
2019-01-06T03:05:56.039Z,10.00
2019-01-06T03:06:56.033Z,10.90
2019-01-06T03:07:56.058Z,11.00
2019-01-06T03:08:56.026Z,11.80
2019-01-06T03:09:56.017Z,9.70
2019-01-06T03:10:56.014Z,11.40
2019-01-06T03:11:56.008Z,10.70
2019-01-06T03:12:56.029Z,9.40
2019-01-06T03:13:56.027Z,11.40
2019-01-06T03:14:55.989Z,10.70
2019-01-06T03:15:55.987Z,9.70
2019-01-06T03:16:55.981Z,9.60
2019-01-06T03:17:55.976Z,9.90
2019-01-06T03:18:55.997Z,10.20
2019-01-06T03:19:55.967Z,10.00
2019-01-06T03:20:55.961Z,8.60
2019-01-06T03:21:55.951Z,10.10
2019-01-06T03:22:55.949Z,9.30
2019-01-06T03:23:55.973Z,9.80
2019-01-06T03:24:55.941Z,11.80
2019-01-06T03:25:55.932Z,9.70
2019-01-06T03:26:55.929Z,9.90
2019-01-06T03:27:55.924Z,9.90
2019-01-06T03:28:55.949Z,9.00
2019-01-06T03:29:55.923Z,7.60
2019-01-06T03:30:55.910Z,8.40
2019-01-06T03:31:55.917Z,8.70
2019-01-06T03:32:55.901Z,10.20
2019-01-06T03:33:55.921Z,9.20
2019-01-06T03:34:55.915Z,8.70
2019-01-06T03:35:55.885Z,9.50
2019-01-06T03:36:55.876Z,9.80
2019-01-06T03:37:55.873Z,7.90
2019-01-06T03:38:55.870Z,9.20
2019-01-06T03:39:55.886Z,8.00
2019-01-06T03:40:55.856Z,8.00
2019-01-06T03:41:55.851Z,6.70
2019-01-06T03:42:55.852Z,7.80
2019-01-06T03:43:55.872Z,8.70
2019-01-06T03:44:55.839Z,7.90
2019-01-06T03:45:55.831Z,8.80
2019-01-06T03:46:55.825Z,8.00
2019-01-06T03:47:55.820Z,9.10
2019-01-06T03:48:55.843Z,8.90
2019-01-06T03:49:55.812Z,10.00
2019-01-06T03:50:55.807Z,9.20
2019-01-06T03:51:55.800Z,7.50
2019-01-06T03:52:55.795Z,6.90
2019-01-06T03:53:55.817Z,7.00
2019-01-06T03:54:55.782Z,7.20
2019-01-06T03:55:55.780Z,7.80
2019-01-06T03:56:55.776Z,7.40
2019-01-06T03:57:55.768Z,6.60
2019-01-06T03:58:55.792Z,8.30
2019-01-06T03:59:55.759Z,8.70
2019-01-06T04:00:55.762Z,8.10
2019-01-06T04:01:55.749Z,6.30
2019-01-06T04:02:55.745Z,9.50
2019-01-06T04:03:55.764Z,8.40
2019-01-06T04:04:55.737Z,9.20
2019-01-06T04:05:55.727Z,7.30
2019-01-06T04:06:55.721Z,8.40
2019-01-06T04:07:55.716Z,8.50
2019-01-06T04:08:55.741Z,8.80
2019-01-06T04:09:55.708Z,6.70
2019-01-06T04:10:55.699Z,7.80
2019-01-06T04:11:55.703Z,7.50
2019-01-06T04:12:55.690Z,7.70
2019-01-06T04:13:55.714Z,8.00
2019-01-06T04:14:55.707Z,8.50
2019-01-06T04:15:55.675Z,8.30
2019-01-06T04:16:55.667Z,7.10
2019-01-06T04:17:55.668Z,7.70
2019-01-06T04:18:55.662Z,8.00
2019-01-06T04:19:55.684Z,7.60
2019-01-06T04:20:55.647Z,10.00
2019-01-06T04:21:55.640Z,8.00
2019-01-06T04:22:55.634Z,8.10
2019-01-06T04:23:55.634Z,9.50
2019-01-06T04:24:55.655Z,9.30
2019-01-06T04:25:55.616Z,8.00
2019-01-06T04:26:55.611Z,8.40
2019-01-06T04:27:55.611Z,8.80
2019-01-06T04:28:55.604Z,7.60
2019-01-06T04:29:55.627Z,8.80
2019-01-06T04:30:55.595Z,8.00
2019-01-06T04:31:55.586Z,8.30
2019-01-06T04:32:55.581Z,8.90
2019-01-06T04:33:55.579Z,7.90
2019-01-06T04:34:55.608Z,6.60
2019-01-06T04:35:55.569Z,8.70
2019-01-06T04:36:55.560Z,11.10
2019-01-06T04:37:55.556Z,8.20
2019-01-06T04:38:55.551Z,9.80
2019-01-06T04:39:55.575Z,7.50
2019-01-06T04:40:55.542Z,8.50
2019-01-06T04:41:55.534Z,8.60
2019-01-06T04:42:55.532Z,7.80
2019-01-06T04:43:55.525Z,8.50
2019-01-06T04:44:55.561Z,9.10
2019-01-06T04:45:55.540Z,9.80
2019-01-06T04:46:55.512Z,9.70
2019-01-06T04:47:55.511Z,7.30
2019-01-06T04:48:55.509Z,8.20
2019-01-06T04:49:55.492Z,9.30
2019-01-06T04:50:55.516Z,9.30
2019-01-06T04:51:55.483Z,8.60
2019-01-06T04:52:55.477Z,7.60
2019-01-06T04:53:55.470Z,9.40
2019-01-06T04:54:55.494Z,10.10
2019-01-06T04:55:55.463Z,9.60
2019-01-06T04:56:55.459Z,10.30
2019-01-06T04:57:55.450Z,7.90
2019-01-06T04:58:55.445Z,9.90
2019-01-06T04:59:55.467Z,9.50
2019-01-06T05:00:55.432Z,12.10
2019-01-06T05:01:55.431Z,10.30
2019-01-06T05:02:55.421Z,11.20
2019-01-06T05:03:55.426Z,11.00
2019-01-06T05:04:55.440Z,10.10
2019-01-06T05:05:55.410Z,11.50
2019-01-06T05:06:55.401Z,10.30
2019-01-06T05:07:55.399Z,9.40
2019-01-06T05:08:55.390Z,11.70
2019-01-06T05:09:55.413Z,10.40
2019-01-06T05:10:55.384Z,12.60
2019-01-06T05:11:55.375Z,11.50
2019-01-06T05:12:55.369Z,12.70
2019-01-06T05:13:55.361Z,12.50
2019-01-06T05:14:55.389Z,9.70
2019-01-06T05:15:55.354Z,9.00
2019-01-06T05:16:55.383Z,8.70
2019-01-06T05:17:55.341Z,9.10
2019-01-06T05:18:55.348Z,8.80
2019-01-06T05:19:55.330Z,8.80
2019-01-06T05:20:55.359Z,9.60
2019-01-06T05:21:55.321Z,10.20
2019-01-06T05:22:55.320Z,8.10
2019-01-06T05:23:55.308Z,8.20
2019-01-06T05:24:55.303Z,10.50
2019-01-06T05:25:55.326Z,8.30
2019-01-06T05:26:55.291Z,7.60
2019-01-06T05:27:55.285Z,8.40
2019-01-06T05:28:55.280Z,8.10
2019-01-06T05:29:55.277Z,8.00
2019-01-06T05:30:55.296Z,7.10
2019-01-06T05:31:55.275Z,7.20
2019-01-06T05:32:55.262Z,7.70
2019-01-06T05:33:55.255Z,6.40
2019-01-06T05:34:55.247Z,7.80
2019-01-06T05:35:55.274Z,7.90
2019-01-06T05:36:55.237Z,6.50
2019-01-06T05:37:55.233Z,9.10
2019-01-06T05:38:55.225Z,7.20
2019-01-06T05:39:55.219Z,8.00
2019-01-06T05:40:55.280Z,6.90
2019-01-06T05:41:55.207Z,7.60
2019-01-06T05:42:55.232Z,7.60
2019-01-06T05:43:55.202Z,7.70
2019-01-06T05:44:55.189Z,6.40
2019-01-06T05:45:55.185Z,6.80
2019-01-06T05:46:55.208Z,9.40
2019-01-06T05:47:55.169Z,8.20
2019-01-06T05:48:55.168Z,6.70
2019-01-06T05:49:55.164Z,6.80
2019-01-06T05:50:55.156Z,6.30
2019-01-06T05:51:55.179Z,9.40
2019-01-06T05:52:55.143Z,6.20
2019-01-06T05:53:55.139Z,7.90
2019-01-06T05:54:55.137Z,8.30
2019-01-06T05:55:55.127Z,8.00
2019-01-06T05:56:55.151Z,7.20
2019-01-06T05:57:55.115Z,7.20
2019-01-06T05:58:55.120Z,10.90
2019-01-06T05:59:55.103Z,10.10
2019-01-06T06:00:55.098Z,8.70
2019-01-06T06:01:55.126Z,8.30
2019-01-06T06:02:55.114Z,6.40
2019-01-06T06:03:55.082Z,8.70
2019-01-06T06:04:55.076Z,8.30
2019-01-06T06:05:55.071Z,8.50
2019-01-06T06:06:55.067Z,7.40
2019-01-06T06:07:55.086Z,6.70
2019-01-06T06:08:55.054Z,6.90
2019-01-06T06:09:55.048Z,8.20
2019-01-06T06:10:55.038Z,8.60
2019-01-06T06:11:55.096Z,10.60
2019-01-06T06:12:55.058Z,7.70
2019-01-06T06:13:55.028Z,8.70
2019-01-06T06:14:55.018Z,8.50
2019-01-06T06:15:55.014Z,7.00
2019-01-06T06:16:55.034Z,7.30
2019-01-06T06:17:54.998Z,7.80
2019-01-06T06:18:55.026Z,7.30
2019-01-06T06:19:54.991Z,8.60
2019-01-06T06:20:54.982Z,6.70
2019-01-06T06:21:54.979Z,7.20
2019-01-06T06:22:54.997Z,6.80
2019-01-06T06:23:54.994Z,7.60
2019-01-06T06:24:54.962Z,8.10
2019-01-06T06:25:54.954Z,6.90
2019-01-06T06:26:54.949Z,6.50
2019-01-06T06:27:54.945Z,5.80
2019-01-06T06:28:54.969Z,8.00
2019-01-06T06:29:54.933Z,9.20
2019-01-06T06:30:54.922Z,8.00
2019-01-06T06:31:54.912Z,7.80
2019-01-06T06:32:54.913Z,6.70
2019-01-06T06:33:54.938Z,7.20
2019-01-06T06:34:54.906Z,8.30
2019-01-06T06:35:54.893Z,7.60
2019-01-06T06:36:54.896Z,7.30
2019-01-06T06:37:54.887Z,7.60
2019-01-06T06:38:54.910Z,8.00
2019-01-06T06:39:54.877Z,7.80
2019-01-06T06:40:54.869Z,6.20
2019-01-06T06:41:54.866Z,7.10
2019-01-06T06:42:54.856Z,6.70
2019-01-06T06:43:54.883Z,7.40
2019-01-06T06:44:54.876Z,6.00
2019-01-06T06:45:54.840Z,7.80
2019-01-06T06:46:54.829Z,8.10
2019-01-06T06:47:54.829Z,10.10
2019-01-06T06:48:54.825Z,6.90
2019-01-06T06:49:54.848Z,8.80
2019-01-06T06:50:54.813Z,7.90
2019-01-06T06:51:54.798Z,8.90
2019-01-06T06:52:54.802Z,9.90
2019-01-06T06:53:54.794Z,9.60
2019-01-06T06:54:54.812Z,8.20
2019-01-06T06:55:54.785Z,8.40
2019-01-06T06:56:54.778Z,9.50
2019-01-06T06:57:54.772Z,9.00
2019-01-06T06:58:54.764Z,8.40
2019-01-06T06:59:54.788Z,8.60
2019-01-06T07:00:54.822Z,9.70
2019-01-06T07:01:54.750Z,9.70
2019-01-06T07:02:54.741Z,8.50
2019-01-06T07:03:54.740Z,9.50
2019-01-06T07:04:54.763Z,9.00
2019-01-06T07:05:54.724Z,9.10
2019-01-06T07:06:54.723Z,8.60
2019-01-06T07:07:54.713Z,8.20
2019-01-06T07:08:54.704Z,11.00
2019-01-06T07:09:54.729Z,8.70
2019-01-06T07:10:54.697Z,10.10
2019-01-06T07:11:54.690Z,9.50
2019-01-06T07:12:54.686Z,8.70
2019-01-06T07:13:54.680Z,9.00
2019-01-06T07:14:54.699Z,9.30
2019-01-06T07:15:54.667Z,8.60
2019-01-06T07:16:54.658Z,8.50
2019-01-06T07:17:54.657Z,8.10
2019-01-06T07:18:54.651Z,10.40
2019-01-06T07:19:54.673Z,8.60
2019-01-06T07:20:54.639Z,10.10
2019-01-06T07:21:54.657Z,9.90
2019-01-06T07:22:54.681Z,9.00
2019-01-06T07:23:54.621Z,9.10
2019-01-06T07:24:54.615Z,8.80
2019-01-06T07:25:54.635Z,11.10
2019-01-06T07:26:54.603Z,9.60
2019-01-06T07:27:54.679Z,8.80
2019-01-06T07:28:54.591Z,8.90
2019-01-06T07:29:54.589Z,10.30
2019-01-06T07:30:54.603Z,10.50
2019-01-06T07:31:54.594Z,11.20
2019-01-06T07:32:54.576Z,8.90
2019-01-06T07:33:54.564Z,9.70
2019-01-06T07:34:54.560Z,9.80
2019-01-06T07:35:54.579Z,10.80
2019-01-06T07:36:54.541Z,9.40
2019-01-06T07:37:54.540Z,9.90
2019-01-06T07:38:54.535Z,11.40
2019-01-06T07:39:54.551Z,9.60
2019-01-06T07:40:54.550Z,10.10
2019-01-06T07:41:54.516Z,9.20
2019-01-06T07:42:54.510Z,10.70
2019-01-06T07:43:54.506Z,12.00
2019-01-06T07:44:54.508Z,10.20
2019-01-06T07:45:54.527Z,11.80
2019-01-06T07:46:54.518Z,10.70
2019-01-06T07:47:54.481Z,10.80
2019-01-06T07:48:54.478Z,11.40
2019-01-06T07:49:54.479Z,10.40
2019-01-06T07:50:54.464Z,9.00
2019-01-06T07:51:54.482Z,9.70
2019-01-06T07:52:54.455Z,13.10
2019-01-06T07:53:54.451Z,9.00
2019-01-06T07:54:54.442Z,9.60
2019-01-06T07:55:54.453Z,9.50
2019-01-06T07:56:54.462Z,10.60
2019-01-06T07:57:54.424Z,12.70
2019-01-06T07:58:54.421Z,11.60
2019-01-06T07:59:54.416Z,13.10
2019-01-06T08:00:54.406Z,14.60
2019-01-06T08:01:54.433Z,15.10
2019-01-06T08:02:54.398Z,14.80
2019-01-06T08:03:54.394Z,14.40
2019-01-06T08:04:54.391Z,11.30
2019-01-06T08:05:54.382Z,10.70
2019-01-06T08:06:54.405Z,10.70
2019-01-06T08:07:55.654Z,8.80
2019-01-06T08:08:54.367Z,10.10
2019-01-06T08:09:54.363Z,10.70
2019-01-06T08:10:54.358Z,11.20
2019-01-06T08:11:54.381Z,10.70
2019-01-06T08:12:54.469Z,14.00
2019-01-06T08:13:54.341Z,13.20
2019-01-06T08:14:54.337Z,11.20
2019-01-06T08:15:54.329Z,12.70
2019-01-06T08:16:54.322Z,13.00
2019-01-06T08:17:54.349Z,13.70
2019-01-06T08:18:54.313Z,9.20
2019-01-06T08:19:54.304Z,10.50
2019-01-06T08:20:54.305Z,9.30
2019-01-06T08:21:54.295Z,10.00
2019-01-06T08:22:54.322Z,8.60
2019-01-06T08:23:54.284Z,10.10
2019-01-06T08:24:54.286Z,10.00
2019-01-06T08:25:54.292Z,9.80
2019-01-06T08:26:54.273Z,9.50
2019-01-06T08:27:54.297Z,9.60
2019-01-06T08:28:54.262Z,10.60
2019-01-06T08:29:54.256Z,7.10
2019-01-06T08:30:54.252Z,9.40
2019-01-06T08:31:54.276Z,7.20
2019-01-06T08:32:54.272Z,8.70
2019-01-06T08:33:54.243Z,7.80
2019-01-06T08:34:54.232Z,8.20
2019-01-06T08:35:54.237Z,7.20
2019-01-06T08:36:54.226Z,8.30
2019-01-06T08:37:54.248Z,8.80
2019-01-06T08:38:54.212Z,7.40
2019-01-06T08:39:54.214Z,9.20
2019-01-06T08:40:54.210Z,9.90
2019-01-06T08:41:54.199Z,9.00
2019-01-06T08:42:54.225Z,8.30
2019-01-06T08:43:54.184Z,9.20
2019-01-06T08:44:54.189Z,10.80
2019-01-06T08:45:54.187Z,9.10
2019-01-06T08:46:54.181Z,9.90
2019-01-06T08:47:54.205Z,10.20
2019-01-06T08:48:54.200Z,9.80
2019-01-06T08:49:54.169Z,8.70
2019-01-06T08:50:54.160Z,8.50
2019-01-06T08:51:54.161Z,8.40
2019-01-06T08:52:54.186Z,8.60
2019-01-06T08:53:54.155Z,7.60
2019-01-06T08:54:54.150Z,8.90
2019-01-06T08:55:54.139Z,8.60
2019-01-06T08:56:54.134Z,8.30
2019-01-06T08:57:54.159Z,9.40
2019-01-06T08:58:54.139Z,8.50
2019-01-06T08:59:54.124Z,9.10
2019-01-06T09:00:54.113Z,9.60
2019-01-06T09:01:54.117Z,8.20
2019-01-06T09:02:54.144Z,7.30
2019-01-06T09:03:54.103Z,7.90
2019-01-06T09:04:54.106Z,8.40
2019-01-06T09:05:54.103Z,7.20
2019-01-06T09:06:54.094Z,7.70
2019-01-06T09:07:54.123Z,7.70
2019-01-06T09:08:54.087Z,8.30
2019-01-06T09:09:54.083Z,7.60
2019-01-06T09:10:54.106Z,8.70
2019-01-06T09:11:54.091Z,8.00
2019-01-06T09:12:54.123Z,6.80
2019-01-06T09:13:54.067Z,6.70
2019-01-06T09:14:54.064Z,7.00
2019-01-06T09:15:54.059Z,6.50
2019-01-06T09:16:54.057Z,6.80
2019-01-06T09:17:54.079Z,7.40
2019-01-06T09:18:54.044Z,5.70
2019-01-06T09:19:54.043Z,6.60
2019-01-06T09:20:54.039Z,8.80
2019-01-06T09:21:54.034Z,6.80
2019-01-06T09:22:54.055Z,7.70
2019-01-06T09:23:54.027Z,6.90
2019-01-06T09:24:54.045Z,6.40
2019-01-06T09:25:54.019Z,5.90
2019-01-06T09:26:54.009Z,6.70
2019-01-06T09:27:54.048Z,7.30
2019-01-06T09:28:54.034Z,6.20
2019-01-06T09:29:53.999Z,5.70
2019-01-06T09:30:54.010Z,4.90
2019-01-06T09:32:02.085Z,5.60
2019-01-06T09:32:53.995Z,5.60
2019-01-06T09:33:54.010Z,5.40
2019-01-06T09:34:53.978Z,5.80
2019-01-06T09:35:53.974Z,5.50
2019-01-06T09:36:53.970Z,6.10
2019-01-06T09:37:53.970Z,6.20
2019-01-06T09:38:53.991Z,5.00
2019-01-06T09:39:53.958Z,6.60
2019-01-06T09:40:53.954Z,5.40
2019-01-06T09:41:53.944Z,4.60
2019-01-06T09:42:53.945Z,5.30
2019-01-06T09:43:53.969Z,3.70
2019-01-06T09:44:53.945Z,4.20
2019-01-06T09:45:53.977Z,5.50
2019-01-06T09:46:53.930Z,4.00
2019-01-06T09:47:53.929Z,4.50
2019-01-06T09:48:53.953Z,4.90
2019-01-06T09:49:53.950Z,6.30
2019-01-06T09:50:53.917Z,5.10
2019-01-06T09:51:53.913Z,5.80
2019-01-06T09:52:53.918Z,6.60
2019-01-06T09:53:53.911Z,5.60
2019-01-06T09:54:53.929Z,5.50
2019-01-06T09:55:53.899Z,6.00
2019-01-06T09:56:53.895Z,5.10
2019-01-06T09:57:53.896Z,5.10
2019-01-06T09:58:53.889Z,8.00
2019-01-06T09:59:53.912Z,7.30
2019-01-06T10:00:53.884Z,5.60
2019-01-06T10:01:53.877Z,6.40
2019-01-06T10:02:53.875Z,6.80
2019-01-06T10:03:53.871Z,7.50
2019-01-06T10:04:54.849Z,6.60
2019-01-06T10:05:53.901Z,6.80
2019-01-06T10:06:53.871Z,7.40
2019-01-06T10:07:53.864Z,8.80
2019-01-06T10:08:53.853Z,4.50
2019-01-06T10:09:53.852Z,6.80
2019-01-06T10:10:53.872Z,5.70
2019-01-06T10:11:53.840Z,5.60
2019-01-06T10:12:53.839Z,4.80
2019-01-06T10:13:53.831Z,7.00
2019-01-06T10:14:53.835Z,7.80
2019-01-06T10:15:53.857Z,5.90
2019-01-06T10:16:53.824Z,7.40
2019-01-06T10:17:53.820Z,7.20
2019-01-06T10:18:53.822Z,5.90
2019-01-06T10:19:53.820Z,6.80
2019-01-06T10:20:53.845Z,6.80
2019-01-06T10:21:53.808Z,6.90
2019-01-06T10:22:53.804Z,6.60
2019-01-06T10:23:53.804Z,4.40
2019-01-06T10:24:53.805Z,6.20
2019-01-06T10:25:53.825Z,6.20
2019-01-06T10:26:53.795Z,5.20
2019-01-06T10:27:53.792Z,5.30
2019-01-06T10:28:53.792Z,7.60
2019-01-06T10:29:53.787Z,7.00
2019-01-06T10:30:53.811Z,8.70
2019-01-06T10:31:53.780Z,6.20
2019-01-06T10:32:53.774Z,7.40
2019-01-06T10:33:53.774Z,5.90
2019-01-06T10:34:53.774Z,5.70
2019-01-06T10:35:53.789Z,6.20
2019-01-06T10:36:53.764Z,5.10
2019-01-06T10:37:53.761Z,5.60
2019-01-06T10:38:53.760Z,6.90
2019-01-06T10:39:53.757Z,5.50
2019-01-06T10:40:53.783Z,6.10
2019-01-06T10:41:53.747Z,4.40
2019-01-06T10:42:53.743Z,6.00
2019-01-06T10:43:53.746Z,4.90
2019-01-06T10:44:53.739Z,6.30
2019-01-06T10:45:53.763Z,6.80
2019-01-06T10:46:53.736Z,6.50
2019-01-06T10:47:53.727Z,6.80
2019-01-06T10:48:53.724Z,7.10
2019-01-06T10:49:53.725Z,8.80
2019-01-06T10:50:53.785Z,6.50
2019-01-06T10:51:53.715Z,4.80
2019-01-06T10:52:53.712Z,5.90
2019-01-06T10:53:53.707Z,6.10
2019-01-06T10:54:53.705Z,7.30
2019-01-06T10:55:53.704Z,6.80
2019-01-06T10:56:53.728Z,7.80
2019-01-06T10:57:53.697Z,5.80
2019-01-06T10:58:53.686Z,5.70
2019-01-06T10:59:53.688Z,4.90
2019-01-06T11:00:53.687Z,5.70
2019-01-06T11:01:53.710Z,4.90
2019-01-06T11:02:53.678Z,5.10
2019-01-06T11:03:53.686Z,5.60
2019-01-06T11:04:53.675Z,4.20
2019-01-06T11:05:53.666Z,5.20
2019-01-06T11:06:53.699Z,3.90
2019-01-06T11:07:53.663Z,4.40
2019-01-06T11:08:53.690Z,5.20
2019-01-06T11:09:53.655Z,4.70
2019-01-06T11:10:53.656Z,5.30
2019-01-06T11:11:53.650Z,4.60
2019-01-06T11:12:53.675Z,5.00
2019-01-06T11:13:53.642Z,4.10
2019-01-06T11:14:53.636Z,3.80
2019-01-06T11:15:53.638Z,4.70
2019-01-06T11:16:53.666Z,3.10
2019-01-06T11:17:53.628Z,3.40
2019-01-06T11:18:53.627Z,3.90
2019-01-06T11:19:53.622Z,3.20
2019-01-06T11:20:53.624Z,3.90
2019-01-06T11:21:53.647Z,3.10
2019-01-06T11:22:53.615Z,3.90
2019-01-06T11:23:53.611Z,4.00
2019-01-06T11:24:53.634Z,3.50
2019-01-06T11:25:53.601Z,2.60
2019-01-06T11:26:53.599Z,3.60
2019-01-06T11:27:53.625Z,3.50
2019-01-06T11:28:53.597Z,3.50
2019-01-06T11:29:53.591Z,2.60
2019-01-06T11:30:53.586Z,3.70
2019-01-06T11:31:53.581Z,3.10
2019-01-06T11:32:53.605Z,4.70
2019-01-06T11:33:53.575Z,2.90
2019-01-06T11:34:53.571Z,3.70
2019-01-06T11:35:53.572Z,2.40
2019-01-06T11:36:53.568Z,3.50
2019-01-06T11:37:53.591Z,2.70
2019-01-06T11:38:53.559Z,2.50
2019-01-06T11:39:53.559Z,3.20
2019-01-06T11:40:53.552Z,2.90
2019-01-06T11:41:53.553Z,2.80
2019-01-06T11:42:53.575Z,3.20
2019-01-06T11:43:53.540Z,2.60
2019-01-06T11:44:53.538Z,2.20
2019-01-06T11:45:53.533Z,2.60
2019-01-06T11:46:53.532Z,4.10
2019-01-06T11:47:53.555Z,4.20
2019-01-06T11:48:53.521Z,2.70
2019-01-06T11:49:53.517Z,1.70
2019-01-06T11:50:53.517Z,2.70
2019-01-06T11:51:53.513Z,2.00
2019-01-06T11:52:53.539Z,2.80
2019-01-06T11:53:53.505Z,1.90
2019-01-06T11:54:53.502Z,2.50
2019-01-06T11:55:53.527Z,3.00
2019-01-06T11:56:53.498Z,2.70
2019-01-06T11:57:53.494Z,1.70
2019-01-06T11:58:53.519Z,2.70
2019-01-06T11:59:53.486Z,1.70
2019-01-06T12:00:53.486Z,2.30
2019-01-06T12:01:53.477Z,3.30
2019-01-06T12:02:53.473Z,2.40
2019-01-06T12:03:53.498Z,2.80
2019-01-06T12:04:53.469Z,2.20
2019-01-06T12:05:53.461Z,1.90
2019-01-06T12:06:53.488Z,2.90
2019-01-06T12:07:53.456Z,1.70
2019-01-06T12:08:53.454Z,2.10
2019-01-06T12:09:53.478Z,2.30
2019-01-06T12:10:53.445Z,1.80
2019-01-06T12:11:53.440Z,1.70
2019-01-06T12:12:53.432Z,2.30
2019-01-06T12:13:53.432Z,2.30
2019-01-06T12:14:53.460Z,2.20
2019-01-06T12:15:53.423Z,1.40
2019-01-06T12:16:53.426Z,2.10
2019-01-06T12:17:53.419Z,1.40
2019-01-06T12:18:53.421Z,2.40
2019-01-06T12:19:53.441Z,1.70
2019-01-06T12:20:53.408Z,2.10
2019-01-06T12:21:53.406Z,2.60
2019-01-06T12:22:53.402Z,2.00
2019-01-06T12:23:54.313Z,2.00
2019-01-06T12:24:53.424Z,1.90
2019-01-06T12:25:53.389Z,1.70
2019-01-06T12:26:53.389Z,2.50
2019-01-06T12:27:53.412Z,2.70
2019-01-06T12:28:53.381Z,2.30
2019-01-06T12:29:53.376Z,1.50
2019-01-06T12:30:53.400Z,3.20
2019-01-06T12:31:53.367Z,3.20
2019-01-06T12:32:53.367Z,2.20
2019-01-06T12:33:53.365Z,2.30
2019-01-06T12:34:53.355Z,1.90
2019-01-06T12:35:53.379Z,3.20
2019-01-06T12:36:53.375Z,3.70
2019-01-06T12:37:53.343Z,1.90
2019-01-06T12:38:53.344Z,2.10
2019-01-06T12:39:53.335Z,3.70
2019-01-06T12:40:53.339Z,2.60
2019-01-06T12:41:53.360Z,2.70
2019-01-06T12:42:53.324Z,3.50
2019-01-06T12:43:53.324Z,1.50
2019-01-06T12:44:53.321Z,1.90
2019-01-06T12:45:53.313Z,1.80
2019-01-06T12:46:53.345Z,3.10
2019-01-06T12:47:54.960Z,3.20
2019-01-06T12:48:53.327Z,2.40
2019-01-06T12:49:53.299Z,2.80
2019-01-06T12:50:53.286Z,2.60
2019-01-06T12:51:53.288Z,2.60
2019-01-06T12:52:53.316Z,2.00
2019-01-06T12:53:53.280Z,1.10
2019-01-06T12:54:53.275Z,2.00
2019-01-06T12:55:53.271Z,2.30
2019-01-06T12:56:53.267Z,2.10
2019-01-06T12:57:53.292Z,1.40
2019-01-06T12:58:53.259Z,1.70
2019-01-06T12:59:53.254Z,1.20
2019-01-06T13:00:53.251Z,2.10
2019-01-06T13:01:53.278Z,2.30
2019-01-06T13:02:53.242Z,2.30
2019-01-06T13:03:53.267Z,2.90
2019-01-06T13:04:53.239Z,2.40
2019-01-06T13:05:53.225Z,2.70
2019-01-06T13:06:53.221Z,3.40
2019-01-06T13:07:53.247Z,3.80
2019-01-06T13:08:53.215Z,3.90
2019-01-06T13:09:53.210Z,4.80
2019-01-06T13:10:53.205Z,3.40